createdAt,value
2017-12-07T00:01:53.095Z,9.65
2017-12-07T00:04:20.851Z,11.40
2017-12-07T00:06:48.652Z,11.00
2017-12-07T00:09:17.189Z,11.70
2017-12-07T00:11:44.945Z,10.25
2017-12-07T00:14:12.756Z,11.75
2017-12-07T00:16:41.823Z,10.30
2017-12-07T00:19:09.585Z,9.02
2017-12-07T00:21:37.395Z,11.68
2017-12-07T00:24:05.144Z,10.75
2017-12-07T00:26:33.658Z,11.60
2017-12-07T00:29:01.584Z,10.10
2017-12-07T00:31:30.109Z,10.80
2017-12-07T00:33:57.867Z,11.65
2017-12-07T00:36:25.677Z,13.95
2017-12-07T00:38:54.232Z,10.00
2017-12-07T00:41:21.980Z,9.50
2017-12-07T00:43:49.809Z,9.57
2017-12-07T00:46:17.555Z,8.60
2017-12-07T00:48:46.073Z,10.55
2017-12-07T00:51:13.880Z,9.93
2017-12-07T00:53:47.271Z,11.15
2017-12-07T00:56:20.667Z,10.07
2017-12-07T00:58:51.192Z,8.57
2017-12-07T01:01:18.943Z,9.80
2017-12-07T01:03:46.748Z,9.32
2017-12-07T01:06:14.500Z,10.48
2017-12-07T01:08:42.260Z,12.15
2017-12-07T01:11:10.841Z,12.07
2017-12-07T01:13:39.357Z,9.98
2017-12-07T01:16:07.124Z,11.27
2017-12-07T01:18:34.940Z,10.40
2017-12-07T01:21:03.465Z,12.07
2017-12-07T01:23:31.212Z,9.98
2017-12-07T01:25:59.040Z,10.95
2017-12-07T01:28:27.568Z,11.88
2017-12-07T01:30:56.086Z,10.30
2017-12-07T01:33:23.941Z,10.90
2017-12-07T01:35:51.700Z,9.95
2017-12-07T01:38:19.453Z,9.90
2017-12-07T01:40:47.423Z,11.98
2017-12-07T01:43:15.171Z,9.70
2017-12-07T01:45:42.926Z,10.40
2017-12-07T01:48:10.727Z,9.57
2017-12-07T01:50:39.244Z,9.40
2017-12-07T01:53:06.996Z,9.88
2017-12-07T01:55:34.959Z,9.68
2017-12-07T01:58:02.719Z,10.20
2017-12-07T02:00:30.504Z,10.25
2017-12-07T02:02:58.312Z,10.88
2017-12-07T02:05:26.072Z,10.65
2017-12-07T02:07:53.830Z,10.35
2017-12-07T02:10:21.631Z,9.88
2017-12-07T02:12:49.388Z,11.27
2017-12-07T02:15:17.138Z,10.02
2017-12-07T02:17:45.712Z,10.68
2017-12-07T02:20:14.227Z,9.07
2017-12-07T02:22:42.014Z,11.38
2017-12-07T02:25:09.851Z,10.68
2017-12-07T02:27:37.635Z,11.12
2017-12-07T02:30:05.424Z,9.88
2017-12-07T02:32:33.259Z,12.10
2017-12-07T02:35:01.057Z,11.38
2017-12-07T02:37:28.850Z,10.68
2017-12-07T02:39:56.679Z,11.40
2017-12-07T02:42:24.476Z,12.88
2017-12-07T02:44:52.247Z,10.00
2017-12-07T02:47:20.084Z,10.50
2017-12-07T02:49:47.880Z,13.32
2017-12-07T02:52:15.687Z,10.70
2017-12-07T02:54:43.531Z,10.50
2017-12-07T02:57:12.085Z,9.02
2017-12-07T02:59:39.873Z,9.13
2017-12-07T03:02:07.701Z,10.23
2017-12-07T03:04:35.460Z,9.13
2017-12-07T03:07:03.652Z,10.10
2017-12-07T03:09:31.481Z,9.57
2017-12-07T03:11:59.263Z,10.38
2017-12-07T03:14:39.037Z,10.05
2017-12-07T03:17:06.825Z,9.80
2017-12-07T03:19:34.593Z,9.98
2017-12-07T03:22:02.439Z,8.63
2017-12-07T03:24:30.220Z,11.98
2017-12-07T03:26:58.760Z,9.27
2017-12-07T03:29:26.589Z,8.93
2017-12-07T03:31:54.364Z,9.75
2017-12-07T03:34:22.140Z,9.55
2017-12-07T03:36:49.971Z,8.70
2017-12-07T03:39:18.511Z,9.30
2017-12-07T03:41:46.291Z,8.35
2017-12-07T03:44:14.157Z,9.13
2017-12-07T03:46:42.701Z,8.18
2017-12-07T03:49:10.485Z,7.68
2017-12-07T03:51:38.316Z,8.10
2017-12-07T03:54:06.088Z,10.88
2017-12-07T03:56:33.859Z,7.68
2017-12-07T03:59:01.708Z,8.75
2017-12-07T04:01:29.497Z,9.02
2017-12-07T04:03:57.264Z,7.70
2017-12-07T04:06:25.087Z,8.73
2017-12-07T04:08:52.863Z,9.27
2017-12-07T04:11:20.635Z,10.43
2017-12-07T04:13:48.816Z,9.38
2017-12-07T04:16:16.599Z,10.27
2017-12-07T04:18:45.153Z,8.70
2017-12-07T04:21:12.984Z,12.60
2017-12-07T04:23:40.755Z,10.27
2017-12-07T04:26:08.519Z,9.10
2017-12-07T04:28:36.347Z,9.40
2017-12-07T04:31:04.885Z,8.02
2017-12-07T04:33:32.660Z,8.30
2017-12-07T04:36:00.492Z,8.70
2017-12-07T04:38:28.272Z,8.90
2017-12-07T04:40:56.048Z,8.50
2017-12-07T04:43:23.871Z,10.65
2017-12-07T04:45:51.654Z,10.30
2017-12-07T04:48:19.427Z,9.02
2017-12-07T04:50:47.259Z,11.77
2017-12-07T04:53:15.032Z,10.90
2017-12-07T04:55:42.800Z,9.13
2017-12-07T04:58:10.612Z,9.13
2017-12-07T05:00:38.467Z,10.50
2017-12-07T05:03:06.997Z,9.90
2017-12-07T05:05:34.856Z,12.02
2017-12-07T05:08:02.629Z,11.23
2017-12-07T05:10:30.404Z,11.52
2017-12-07T05:12:58.247Z,11.45
2017-12-07T05:15:26.029Z,10.10
2017-12-07T05:17:53.812Z,9.30
2017-12-07T05:20:22.404Z,9.50
2017-12-07T05:22:50.935Z,17.55
2017-12-07T05:25:18.703Z,9.60
2017-12-07T05:27:46.533Z,10.20
2017-12-07T05:30:14.383Z,9.88
2017-12-07T05:32:42.150Z,9.32
2017-12-07T05:35:09.988Z,10.90
2017-12-07T05:37:38.539Z,11.18
2017-12-07T05:40:06.312Z,10.70
2017-12-07T05:42:34.152Z,9.63
2017-12-07T05:45:01.909Z,9.35
2017-12-07T05:47:29.691Z,9.35
2017-12-07T05:49:57.756Z,9.98
2017-12-07T05:52:26.305Z,11.32
2017-12-07T05:54:54.080Z,10.93
2017-12-07T05:57:21.910Z,11.12
2017-12-07T05:59:49.679Z,12.15
2017-12-07T06:02:17.466Z,18.27
2017-12-07T06:04:45.298Z,15.48
2017-12-07T06:07:13.078Z,12.68
2017-12-07T06:09:40.877Z,14.77
2017-12-07T06:12:08.716Z,16.33
2017-12-07T06:14:36.493Z,14.70
2017-12-07T06:17:04.297Z,13.32
2017-12-07T06:19:32.887Z,14.25
2017-12-07T06:22:01.423Z,12.82
2017-12-07T06:24:29.198Z,15.27
2017-12-07T06:26:57.035Z,15.98
2017-12-07T06:29:24.815Z,13.88
2017-12-07T06:31:52.586Z,18.45
2017-12-07T06:34:20.415Z,16.02
2017-12-07T06:36:48.196Z,15.43
2017-12-07T06:39:15.968Z,18.10
2017-12-07T06:41:43.804Z,19.00
2017-12-07T06:44:11.575Z,13.50
2017-12-07T06:46:39.418Z,15.38
2017-12-07T06:49:07.243Z,17.70
2017-12-07T06:51:35.786Z,17.83
2017-12-07T06:54:03.579Z,14.20
2017-12-07T06:56:31.419Z,13.05
2017-12-07T06:58:59.206Z,14.87
2017-12-07T07:01:27.742Z,19.02
2017-12-07T07:03:55.584Z,14.93
2017-12-07T07:06:23.384Z,19.60
2017-12-07T07:08:51.169Z,15.13
2017-12-07T07:11:19.019Z,15.73
2017-12-07T07:13:46.814Z,19.87
2017-12-07T07:16:15.360Z,24.12
2017-12-07T07:18:43.188Z,18.37
2017-12-07T07:21:10.970Z,15.80
2017-12-07T07:23:38.751Z,18.77
2017-12-07T07:26:06.584Z,24.67
2017-12-07T07:28:34.373Z,17.50
2017-12-07T07:31:02.142Z,18.25
2017-12-07T07:33:29.977Z,17.20
2017-12-07T07:35:57.757Z,21.12
2017-12-07T07:38:25.538Z,16.55
2017-12-07T07:40:53.386Z,19.33
2017-12-07T07:43:21.162Z,15.02
2017-12-07T07:45:48.938Z,16.62
2017-12-07T07:48:17.541Z,14.30
2017-12-07T07:50:45.321Z,14.98
2017-12-07T07:53:13.099Z,15.23
2017-12-07T07:55:40.927Z,20.25
2017-12-07T07:58:08.710Z,16.75
2017-12-07T08:00:36.492Z,13.93
2017-12-07T08:03:04.312Z,13.25
2017-12-07T08:05:32.083Z,14.70
2017-12-07T08:07:59.876Z,12.73
2017-12-07T08:10:27.720Z,15.02
2017-12-07T08:12:55.505Z,18.52
2017-12-07T08:15:25.120Z,17.80
2017-12-07T08:17:52.964Z,14.60
2017-12-07T08:20:20.747Z,15.70
2017-12-07T08:22:48.551Z,17.77
2017-12-07T08:25:16.382Z,14.75
2017-12-07T08:27:44.158Z,20.35
2017-12-07T08:30:12.684Z,14.75
2017-12-07T08:32:40.520Z,17.62
2017-12-07T08:35:08.326Z,17.20
2017-12-07T08:37:36.115Z,15.25
2017-12-07T08:40:03.965Z,19.55
2017-12-07T08:42:31.744Z,14.30
2017-12-07T08:44:59.584Z,15.60
2017-12-07T08:47:27.404Z,24.92
2017-12-07T08:49:55.182Z,13.77
2017-12-07T08:52:22.972Z,32.75
2017-12-07T08:54:50.807Z,22.23
2017-12-07T08:57:18.616Z,30.33
2017-12-07T08:59:46.404Z,26.15
2017-12-07T09:02:14.250Z,29.10
2017-12-07T09:04:42.805Z,23.42
2017-12-07T09:07:10.569Z,22.67
2017-12-07T09:09:38.418Z,28.80
2017-12-07T09:12:06.204Z,23.75
2017-12-07T09:14:33.996Z,14.45
2017-12-07T09:17:02.608Z,24.60
2017-12-07T09:19:30.383Z,15.48
2017-12-07T09:21:58.191Z,21.77
2017-12-07T09:24:26.788Z,21.67
2017-12-07T09:26:54.575Z,19.58
2017-12-07T09:29:22.357Z,30.33
2017-12-07T09:31:50.206Z,28.77
2017-12-07T09:34:17.990Z,35.72
2017-12-07T09:36:45.762Z,21.70
2017-12-07T09:39:13.594Z,31.15
2017-12-07T09:41:41.380Z,22.10
2017-12-07T09:44:09.151Z,26.33
2017-12-07T09:46:36.988Z,16.87
2017-12-07T09:49:04.761Z,20.52
2017-12-07T09:51:32.539Z,22.40
2017-12-07T09:54:00.382Z,21.60
2017-12-07T09:56:28.172Z,19.05
2017-12-07T09:58:55.948Z,14.02
2017-12-07T10:01:24.558Z,19.75
2017-12-07T10:03:52.356Z,15.15
2017-12-07T10:06:20.139Z,15.80
2017-12-07T10:08:47.954Z,13.25
2017-12-07T10:11:15.728Z,14.95
2017-12-07T10:13:43.523Z,18.25
2017-12-07T10:16:11.640Z,13.93
2017-12-07T10:18:39.438Z,16.10
2017-12-07T10:21:07.195Z,14.20
2017-12-07T10:23:35.032Z,17.42
2017-12-07T10:26:02.816Z,18.83
2017-12-07T10:28:30.598Z,16.27
2017-12-07T10:30:58.465Z,14.15
2017-12-07T10:33:26.265Z,15.80
2017-12-07T10:35:54.086Z,15.07
2017-12-07T10:38:21.913Z,16.73
2017-12-07T10:40:49.693Z,15.70
2017-12-07T10:43:17.480Z,18.75
2017-12-07T10:45:45.315Z,14.45
2017-12-07T10:48:13.878Z,16.05
2017-12-07T10:50:41.656Z,13.15
2017-12-07T10:53:09.504Z,16.55
2017-12-07T10:55:37.278Z,15.98
2017-12-07T10:58:05.057Z,15.18
2017-12-07T11:00:32.892Z,12.88
2017-12-07T11:03:00.686Z,12.55
2017-12-07T11:05:28.440Z,15.68
2017-12-07T11:07:56.270Z,14.10
2017-12-07T11:10:24.088Z,17.70
2017-12-07T11:12:51.843Z,16.12
2017-12-07T11:15:19.684Z,13.73
2017-12-07T11:17:47.468Z,14.30
2017-12-07T11:20:15.249Z,24.80
2017-12-07T11:22:43.914Z,17.95
2017-12-07T11:25:11.719Z,15.65
2017-12-07T11:27:39.491Z,16.17
2017-12-07T11:30:07.329Z,17.10
2017-12-07T11:32:35.126Z,17.02
2017-12-07T11:35:02.908Z,14.77
2017-12-07T11:37:30.748Z,15.07
2017-12-07T11:39:58.540Z,17.95
2017-12-07T11:42:26.341Z,23.98
2017-12-07T11:44:54.961Z,17.30
2017-12-07T11:47:22.757Z,13.32
2017-12-07T11:49:50.540Z,14.93
2017-12-07T11:52:19.150Z,13.55
2017-12-07T11:54:46.928Z,15.45
2017-12-07T11:57:14.742Z,14.85
2017-12-07T11:59:43.347Z,16.05
2017-12-07T12:02:11.132Z,17.67
2017-12-07T12:04:38.917Z,16.25
2017-12-07T12:07:06.752Z,17.35
2017-12-07T12:09:34.524Z,18.80
2017-12-07T12:12:02.308Z,14.00
2017-12-07T12:14:30.157Z,16.25
2017-12-07T12:16:57.935Z,17.95
2017-12-07T12:19:25.714Z,13.65
2017-12-07T12:21:53.561Z,12.88
2017-12-07T12:24:22.112Z,12.30
2017-12-07T12:26:51.069Z,19.10
2017-12-07T12:29:19.674Z,14.70
2017-12-07T12:31:47.452Z,11.48
2017-12-07T12:34:15.223Z,12.45
2017-12-07T12:36:43.825Z,15.90
2017-12-07T12:39:11.632Z,18.70
2017-12-07T12:41:39.422Z,15.40
2017-12-07T12:44:07.258Z,15.70
2017-12-07T12:46:35.040Z,24.67
2017-12-07T12:49:02.819Z,22.33
2017-12-07T12:51:30.663Z,23.77
2017-12-07T12:53:58.444Z,14.45
2017-12-07T12:56:26.230Z,9.15
2017-12-07T12:58:54.059Z,10.70
2017-12-07T13:01:21.836Z,11.77
2017-12-07T13:03:49.588Z,7.97
2017-12-07T13:06:17.408Z,9.68
2017-12-07T13:08:45.990Z,12.30
2017-12-07T13:11:13.783Z,11.32
2017-12-07T13:13:41.623Z,17.05
2017-12-07T13:16:09.383Z,20.67
2017-12-07T13:18:37.156Z,19.90
2017-12-07T13:21:05.742Z,16.60
2017-12-07T13:23:33.495Z,18.25
2017-12-07T13:26:01.279Z,19.52
2017-12-07T13:28:29.111Z,34.20
2017-12-07T13:30:56.915Z,17.40
2017-12-07T13:33:24.675Z,17.12
2017-12-07T13:35:52.497Z,13.18
2017-12-07T13:38:20.247Z,13.70
2017-12-07T13:40:48.774Z,10.75
2017-12-07T13:43:16.585Z,11.95
2017-12-07T13:45:45.116Z,16.00
2017-12-07T13:48:12.880Z,13.20
2017-12-07T13:50:40.695Z,16.55
2017-12-07T13:53:09.215Z,13.90
2017-12-07T13:55:36.976Z,16.15
2017-12-07T13:58:04.818Z,23.98
2017-12-07T14:00:32.596Z,14.13
2017-12-07T14:03:00.372Z,17.73
2017-12-07T14:05:28.179Z,13.60
2017-12-07T14:07:56.705Z,17.02
2017-12-07T14:10:24.460Z,21.35
2017-12-07T14:12:52.272Z,23.48
2017-12-07T14:15:20.804Z,25.12
2017-12-07T14:17:48.560Z,32.78
2017-12-07T14:20:16.380Z,25.73
2017-12-07T14:22:44.140Z,19.27
2017-12-07T14:25:11.898Z,24.27
2017-12-07T14:27:39.715Z,29.85
2017-12-07T14:30:07.504Z,25.00
2017-12-07T14:32:36.032Z,28.05
2017-12-07T14:35:03.856Z,23.08
2017-12-07T14:37:31.612Z,28.48
2017-12-07T14:39:59.363Z,30.73
2017-12-07T14:42:27.171Z,29.02
2017-12-07T14:44:55.695Z,30.27
2017-12-07T14:47:23.443Z,28.85
2017-12-07T14:49:51.258Z,29.12
2017-12-07T14:52:19.016Z,25.08
2017-12-07T14:54:46.771Z,24.77
2017-12-07T14:57:14.580Z,24.80
2017-12-07T14:59:42.340Z,20.95
2017-12-07T15:02:10.096Z,23.42
2017-12-07T15:04:37.915Z,23.17
2017-12-07T15:07:05.672Z,26.20
2017-12-07T15:09:33.428Z,25.25
2017-12-07T15:12:01.235Z,33.80
2017-12-07T15:14:29.752Z,28.67
2017-12-07T15:16:57.515Z,26.50
2017-12-07T15:19:25.334Z,25.65
2017-12-07T15:21:53.861Z,38.30
2017-12-07T15:24:21.696Z,24.45
2017-12-07T15:26:49.555Z,27.25
2017-12-07T15:29:17.325Z,32.55
2017-12-07T15:31:45.092Z,31.58
2017-12-07T15:34:12.917Z,32.25
2017-12-07T15:36:41.675Z,42.70
2017-12-07T15:39:09.484Z,40.12
2017-12-07T15:41:38.075Z,31.25
2017-12-07T15:44:05.839Z,34.70
2017-12-07T15:46:33.601Z,31.50
2017-12-07T15:49:01.407Z,34.63
2017-12-07T15:51:29.943Z,32.55
2017-12-07T15:53:57.716Z,34.85
2017-12-07T15:56:25.525Z,30.40
2017-12-07T15:58:53.284Z,35.72
2017-12-07T16:01:21.040Z,27.48
2017-12-07T16:03:48.853Z,28.30
2017-12-07T16:06:16.742Z,28.27
2017-12-07T16:08:44.533Z,36.53
2017-12-07T16:11:12.342Z,32.30
2017-12-07T16:13:40.101Z,34.60
2017-12-07T16:16:07.856Z,35.20
2017-12-07T16:18:35.680Z,32.83
2017-12-07T16:21:03.462Z,27.83
2017-12-07T16:23:32.012Z,37.75
2017-12-07T16:25:59.822Z,23.65
2017-12-07T16:28:27.585Z,32.75
2017-12-07T16:30:55.348Z,32.35
2017-12-07T16:33:23.164Z,27.52
2017-12-07T16:35:51.721Z,32.00
2017-12-07T16:38:19.580Z,29.95
2017-12-07T16:40:47.628Z,23.80
2017-12-07T16:43:15.607Z,21.83
2017-12-07T16:45:43.647Z,23.15
2017-12-07T16:48:11.994Z,25.65
2017-12-07T16:50:40.843Z,28.58
2017-12-07T16:53:08.737Z,24.35
2017-12-07T16:55:36.607Z,24.02
2017-12-07T16:58:04.477Z,27.10
2017-12-07T17:00:33.021Z,28.25
2017-12-07T17:03:00.919Z,23.20
2017-12-07T17:05:29.462Z,26.98
2017-12-07T17:07:57.217Z,20.83
2017-12-07T17:10:25.079Z,25.33
2017-12-07T17:12:52.855Z,23.40
2017-12-07T17:15:20.607Z,23.17
2017-12-07T17:17:48.568Z,21.92
2017-12-07T17:20:16.341Z,19.98
2017-12-07T17:22:44.145Z,21.90
2017-12-07T17:25:12.082Z,26.00
2017-12-07T17:27:40.159Z,28.40
2017-12-07T17:30:08.203Z,28.67
2017-12-07T17:32:36.555Z,24.00
2017-12-07T17:35:04.577Z,21.10
2017-12-07T17:37:33.127Z,30.42
2017-12-07T17:40:00.936Z,18.12
2017-12-07T17:42:29.003Z,26.77
2017-12-07T17:44:57.037Z,22.83
2017-12-07T17:47:25.104Z,22.45
2017-12-07T17:49:52.891Z,23.55
2017-12-07T17:52:20.833Z,20.05
2017-12-07T17:54:48.821Z,27.27
2017-12-07T17:57:16.642Z,18.77
2017-12-07T17:59:44.403Z,23.90
2017-12-07T18:02:12.488Z,36.78
2017-12-07T18:04:40.412Z,38.83
2017-12-07T18:07:08.194Z,36.10
2017-12-07T18:09:36.182Z,23.25
2017-12-07T18:12:04.566Z,21.55
2017-12-07T18:14:32.684Z,23.10
2017-12-07T18:17:00.542Z,27.33
2017-12-07T18:19:28.609Z,22.65
2017-12-07T18:21:56.416Z,23.23
2017-12-07T18:24:24.622Z,20.65
2017-12-07T18:26:52.644Z,19.35
2017-12-07T18:29:20.654Z,21.45
2017-12-07T18:31:48.827Z,20.98
2017-12-07T18:34:16.663Z,27.55
2017-12-07T18:36:44.617Z,23.52
2017-12-07T18:39:12.836Z,26.83
2017-12-07T18:41:41.080Z,34.35
2017-12-07T18:44:09.086Z,32.92
2017-12-07T18:46:37.313Z,48.92
2017-12-07T18:49:05.900Z,36.45
2017-12-07T18:51:34.150Z,28.08
2017-12-07T18:54:05.177Z,26.48
2017-12-07T18:56:44.834Z,24.12
2017-12-07T18:59:13.144Z,18.15
2017-12-07T19:01:43.371Z,19.85
2017-12-07T19:04:13.281Z,34.55
2017-12-07T19:06:42.691Z,23.92
2017-12-07T19:09:12.898Z,21.77
2017-12-07T19:11:42.299Z,22.37
2017-12-07T19:14:12.928Z,20.23
2017-12-07T19:16:41.066Z,25.27
2017-12-07T19:19:09.693Z,16.50
2017-12-07T19:21:37.452Z,27.02
2017-12-07T19:24:05.262Z,25.73
2017-12-07T19:26:33.020Z,18.60
2017-12-07T19:29:00.831Z,18.58
2017-12-07T19:31:28.710Z,20.80
2017-12-07T19:33:56.459Z,20.60
2017-12-07T19:36:24.241Z,20.10
2017-12-07T19:38:52.118Z,16.85
2017-12-07T19:41:20.661Z,14.63
2017-12-07T19:43:48.423Z,15.13
2017-12-07T19:46:16.236Z,12.65
2017-12-07T19:48:44.029Z,11.93
2017-12-07T19:51:11.779Z,11.10
2017-12-07T19:53:40.629Z,11.35
2017-12-07T19:56:09.145Z,9.70
2017-12-07T19:58:36.917Z,12.00
2017-12-07T20:01:04.832Z,13.60
2017-12-07T20:03:33.351Z,18.98
2017-12-07T20:06:01.106Z,18.25
2017-12-07T20:08:28.956Z,13.35
2017-12-07T20:10:56.765Z,18.37
2017-12-07T20:13:25.304Z,26.50
2017-12-07T20:15:53.140Z,23.58
2017-12-07T20:18:21.687Z,24.52
2017-12-07T20:20:49.450Z,16.70
2017-12-07T20:23:17.267Z,16.15
2017-12-07T20:25:45.035Z,13.98
2017-12-07T20:28:12.812Z,21.15
2017-12-07T20:30:40.734Z,14.32
2017-12-07T20:33:09.256Z,14.07
2017-12-07T20:35:37.024Z,12.60
2017-12-07T20:38:04.862Z,14.40
2017-12-07T20:40:32.633Z,12.07
2017-12-07T20:43:00.387Z,12.35
2017-12-07T20:45:28.223Z,13.73
2017-12-07T20:47:55.976Z,10.32
2017-12-07T20:50:23.775Z,11.18
2017-12-07T20:52:51.583Z,12.15
2017-12-07T20:55:21.477Z,13.40
2017-12-07T20:57:49.229Z,11.60
2017-12-07T21:00:17.044Z,16.83
2017-12-07T21:02:44.812Z,12.93
2017-12-07T21:05:13.345Z,21.15
2017-12-07T21:07:41.179Z,17.00
2017-12-07T21:10:08.934Z,17.35
2017-12-07T21:12:36.712Z,11.65
2017-12-07T21:15:04.605Z,13.25
2017-12-07T21:17:32.366Z,11.30
2017-12-07T21:20:00.186Z,12.77
2017-12-07T21:22:28.015Z,15.30
2017-12-07T21:24:55.781Z,11.43
2017-12-07T21:27:23.544Z,13.23
2017-12-07T21:29:51.360Z,11.27
2017-12-07T21:32:19.112Z,15.43
2017-12-07T21:34:46.859Z,10.05
2017-12-07T21:37:14.688Z,11.38
2017-12-07T21:39:42.452Z,16.27
2017-12-07T21:42:10.208Z,13.90
2017-12-07T21:44:38.015Z,13.07
2017-12-07T21:47:05.767Z,14.63
2017-12-07T21:49:34.283Z,14.25
2017-12-07T21:52:02.098Z,14.55
2017-12-07T21:54:30.624Z,11.82
2017-12-07T21:56:58.370Z,6.97
2017-12-07T21:59:26.176Z,11.10
2017-12-07T22:01:53.948Z,9.93
2017-12-07T22:04:21.699Z,9.90
2017-12-07T22:06:49.502Z,11.50
2017-12-07T22:09:17.247Z,7.07
2017-12-07T22:11:45.008Z,10.82
2017-12-07T22:14:13.579Z,7.95
2017-12-07T22:16:41.336Z,9.50
2017-12-07T22:19:09.084Z,8.90
2017-12-07T22:21:36.889Z,7.47
2017-12-07T22:24:04.645Z,8.93
2017-12-07T22:26:33.165Z,7.22
2017-12-07T22:29:00.984Z,8.20
2017-12-07T22:31:29.541Z,8.02
2017-12-07T22:33:57.300Z,10.32
2017-12-07T22:36:25.128Z,11.12
2017-12-07T22:38:52.883Z,11.32
2017-12-07T22:41:20.636Z,8.25
2017-12-07T22:43:48.444Z,7.00
2017-12-07T22:46:16.206Z,6.60
2017-12-07T22:48:43.964Z,9.35
2017-12-07T22:51:11.780Z,8.57
2017-12-07T22:53:39.545Z,7.72
2017-12-07T22:56:07.299Z,7.03
2017-12-07T22:58:35.114Z,6.72
2017-12-07T23:01:02.864Z,7.30
2017-12-07T23:03:30.660Z,7.65
2017-12-07T23:05:59.232Z,7.18
2017-12-07T23:08:27.055Z,5.05
2017-12-07T23:10:54.829Z,7.22
2017-12-07T23:13:22.631Z,7.47
2017-12-07T23:15:51.148Z,8.80
2017-12-07T23:18:18.944Z,5.78
2017-12-07T23:20:46.757Z,8.70
2017-12-07T23:23:14.524Z,7.68
2017-12-07T23:25:42.295Z,6.95
2017-12-07T23:28:10.136Z,7.10
2017-12-07T23:30:37.907Z,7.62
2017-12-07T23:33:05.661Z,6.55
2017-12-07T23:35:33.472Z,5.75
2017-12-07T23:38:01.219Z,6.15
2017-12-07T23:40:28.975Z,5.72
2017-12-07T23:42:56.777Z,5.28
2017-12-07T23:45:24.524Z,7.03
2017-12-07T23:47:52.269Z,4.43
2017-12-07T23:50:20.076Z,16.85
2017-12-07T23:52:48.596Z,4.20
2017-12-07T23:55:16.347Z,5.30
2017-12-07T23:57:50.964Z,4.43
